sensor_id;sensor_type;location;lat;lon;timestamp;temperature;humidity
12303;DHT22;6214;48.012;7.862;2023-02-18T00:00:28;13.40;99.90
12303;DHT22;6214;48.012;7.862;2023-02-18T00:02:55;13.50;99.90
12303;DHT22;6214;48.012;7.862;2023-02-18T00:05:22;13.50;99.90
12303;DHT22;6214;48.012;7.862;2023-02-18T00:07:49;13.50;99.90
12303;DHT22;6214;48.012;7.862;2023-02-18T00:10:16;13.50;99.90
12303;DHT22;6214;48.012;7.862;2023-02-18T00:12:44;13.60;99.90
12303;DHT22;6214;48.012;7.862;2023-02-18T00:15:11;13.50;99.90
12303;DHT22;6214;48.012;7.862;2023-02-18T00:17:38;13.40;99.90
12303;DHT22;6214;48.012;7.862;2023-02-18T00:20:06;13.40;99.90
12303;DHT22;6214;48.012;7.862;2023-02-18T00:22:33;13.30;99.90
12303;DHT22;6214;48.012;7.862;2023-02-18T00:25:00;13.40;99.90
12303;DHT22;6214;48.012;7.862;2023-02-18T00:27:26;13.30;99.90
12303;DHT22;6214;48.012;7.862;2023-02-18T00:29:53;13.30;99.90
12303;DHT22;6214;48.012;7.862;2023-02-18T00:32:20;13.40;99.90
12303;DHT22;6214;48.012;7.862;2023-02-18T00:34:47;13.30;99.90
12303;DHT22;6214;48.012;7.862;2023-02-18T00:37:14;13.30;99.90
12303;DHT22;6214;48.012;7.862;2023-02-18T00:39:41;13.30;99.90
12303;DHT22;6214;48.012;7.862;2023-02-18T00:42:08;13.20;99.90
12303;DHT22;6214;48.012;7.862;2023-02-18T00:44:35;13.10;99.90
12303;DHT22;6214;48.012;7.862;2023-02-18T00:47:02;13.00;99.90
12303;DHT22;6214;48.012;7.862;2023-02-18T00:49:29;13.00;99.90
12303;DHT22;6214;48.012;7.862;2023-02-18T00:51:56;13.00;99.90
12303;DHT22;6214;48.012;7.862;2023-02-18T00:54:22;13.00;99.90
12303;DHT22;6214;48.012;7.862;2023-02-18T00:56:50;13.00;99.90
12303;DHT22;6214;48.012;7.862;2023-02-18T00:59:16;13.10;99.90
12303;DHT22;6214;48.012;7.862;2023-02-18T01:01:43;13.00;99.90
12303;DHT22;6214;48.012;7.862;2023-02-18T01:04:10;13.00;99.90
12303;DHT22;6214;48.012;7.862;2023-02-18T01:06:38;13.00;99.90
12303;DHT22;6214;48.012;7.862;2023-02-18T01:09:05;13.00;99.90
12303;DHT22;6214;48.012;7.862;2023-02-18T01:11:32;13.00;99.90
12303;DHT22;6214;48.012;7.862;2023-02-18T01:13:59;13.00;99.90
12303;DHT22;6214;48.012;7.862;2023-02-18T01:16:26;12.90;99.90
12303;DHT22;6214;48.012;7.862;2023-02-18T01:18:53;12.90;99.90
12303;DHT22;6214;48.012;7.862;2023-02-18T01:21:19;12.90;99.90
12303;DHT22;6214;48.012;7.862;2023-02-18T01:23:46;12.80;99.90
12303;DHT22;6214;48.012;7.862;2023-02-18T01:26:13;12.90;99.90
12303;DHT22;6214;48.012;7.862;2023-02-18T01:28:40;12.90;99.90
12303;DHT22;6214;48.012;7.862;2023-02-18T01:31:10;12.90;99.90
12303;DHT22;6214;48.012;7.862;2023-02-18T01:33:37;12.90;99.90
12303;DHT22;6214;48.012;7.862;2023-02-18T01:36:05;12.90;99.90
12303;DHT22;6214;48.012;7.862;2023-02-18T01:38:33;13.00;99.90
12303;DHT22;6214;48.012;7.862;2023-02-18T01:41:00;13.00;99.90
12303;DHT22;6214;48.012;7.862;2023-02-18T01:43:27;12.90;99.90
12303;DHT22;6214;48.012;7.862;2023-02-18T01:48:41;13.00;99.90
12303;DHT22;6214;48.012;7.862;2023-02-18T01:51:13;13.10;99.90
12303;DHT22;6214;48.012;7.862;2023-02-18T01:56:39;13.10;99.90
12303;DHT22;6214;48.012;7.862;2023-02-18T01:59:12;13.20;99.90
12303;DHT22;6214;48.012;7.862;2023-02-18T02:01:41;13.20;99.90
12303;DHT22;6214;48.012;7.862;2023-02-18T02:04:09;13.20;99.90
12303;DHT22;6214;48.012;7.862;2023-02-18T02:06:36;13.20;99.90
12303;DHT22;6214;48.012;7.862;2023-02-18T02:09:05;13.30;99.90
12303;DHT22;6214;48.012;7.862;2023-02-18T02:12:04;13.30;99.90
12303;DHT22;6214;48.012;7.862;2023-02-18T02:17:25;13.30;99.90
12303;DHT22;6214;48.012;7.862;2023-02-18T02:29:17;13.40;99.90
12303;DHT22;6214;48.012;7.862;2023-02-18T02:32:02;13.40;99.90
12303;DHT22;6214;48.012;7.862;2023-02-18T02:45:59;13.40;99.90
12303;DHT22;6214;48.012;7.862;2023-02-18T02:48:34;13.30;99.90
12303;DHT22;6214;48.012;7.862;2023-02-18T02:51:40;13.40;99.90
12303;DHT22;6214;48.012;7.862;2023-02-18T02:54:18;13.40;99.90
12303;DHT22;6214;48.012;7.862;2023-02-18T02:56:46;13.40;99.90
12303;DHT22;6214;48.012;7.862;2023-02-18T02:59:18;13.30;99.90
12303;DHT22;6214;48.012;7.862;2023-02-18T03:20:46;13.50;99.90
12303;DHT22;6214;48.012;7.862;2023-02-18T03:23:20;13.50;99.90
12303;DHT22;6214;48.012;7.862;2023-02-18T03:25:49;13.40;99.90
12303;DHT22;6214;48.012;7.862;2023-02-18T03:28:18;13.40;99.90
12303;DHT22;6214;48.012;7.862;2023-02-18T03:30:53;13.40;99.90
12303;DHT22;6214;48.012;7.862;2023-02-18T03:33:29;13.50;99.90
12303;DHT22;6214;48.012;7.862;2023-02-18T03:35:58;13.40;99.90
12303;DHT22;6214;48.012;7.862;2023-02-18T03:38:33;13.50;99.90
12303;DHT22;6214;48.012;7.862;2023-02-18T03:41:02;13.50;99.90
12303;DHT22;6214;48.012;7.862;2023-02-18T03:43:30;13.50;99.90
12303;DHT22;6214;48.012;7.862;2023-02-18T03:45:57;13.50;99.90
12303;DHT22;6214;48.012;7.862;2023-02-18T03:48:25;13.60;99.90
12303;DHT22;6214;48.012;7.862;2023-02-18T03:50:51;13.60;99.90
12303;DHT22;6214;48.012;7.862;2023-02-18T03:53:18;13.60;99.90
12303;DHT22;6214;48.012;7.862;2023-02-18T03:55:45;13.60;99.90
12303;DHT22;6214;48.012;7.862;2023-02-18T03:58:12;13.60;99.90
12303;DHT22;6214;48.012;7.862;2023-02-18T04:00:39;13.50;99.90
12303;DHT22;6214;48.012;7.862;2023-02-18T04:03:06;13.60;99.90
12303;DHT22;6214;48.012;7.862;2023-02-18T04:05:33;13.80;99.90
12303;DHT22;6214;48.012;7.862;2023-02-18T04:08:00;13.70;99.90
12303;DHT22;6214;48.012;7.862;2023-02-18T04:10:26;13.80;99.90
12303;DHT22;6214;48.012;7.862;2023-02-18T04:12:53;13.70;99.90
12303;DHT22;6214;48.012;7.862;2023-02-18T04:15:20;13.70;99.90
12303;DHT22;6214;48.012;7.862;2023-02-18T04:17:47;13.60;99.90
12303;DHT22;6214;48.012;7.862;2023-02-18T04:20:14;13.60;99.90
12303;DHT22;6214;48.012;7.862;2023-02-18T04:22:42;13.60;99.90
12303;DHT22;6214;48.012;7.862;2023-02-18T04:25:09;13.60;99.90
12303;DHT22;6214;48.012;7.862;2023-02-18T04:27:35;13.70;99.90
12303;DHT22;6214;48.012;7.862;2023-02-18T04:30:04;13.60;99.90
12303;DHT22;6214;48.012;7.862;2023-02-18T04:32:31;13.60;99.90
12303;DHT22;6214;48.012;7.862;2023-02-18T04:34:58;13.60;99.90
12303;DHT22;6214;48.012;7.862;2023-02-18T04:37:25;13.60;99.90
12303;DHT22;6214;48.012;7.862;2023-02-18T04:39:51;13.60;99.90
12303;DHT22;6214;48.012;7.862;2023-02-18T04:42:18;13.70;99.90
12303;DHT22;6214;48.012;7.862;2023-02-18T04:44:45;13.60;99.90
12303;DHT22;6214;48.012;7.862;2023-02-18T04:47:13;13.70;99.90
12303;DHT22;6214;48.012;7.862;2023-02-18T04:49:40;13.60;99.90
12303;DHT22;6214;48.012;7.862;2023-02-18T04:52:07;13.60;99.90
12303;DHT22;6214;48.012;7.862;2023-02-18T04:54:34;13.60;99.90
12303;DHT22;6214;48.012;7.862;2023-02-18T04:57:01;13.50;99.90
12303;DHT22;6214;48.012;7.862;2023-02-18T04:59:28;13.60;99.90
12303;DHT22;6214;48.012;7.862;2023-02-18T05:01:55;14.50;99.90
12303;DHT22;6214;48.012;7.862;2023-02-18T05:04:22;13.60;99.90
12303;DHT22;6214;48.012;7.862;2023-02-18T05:06:49;13.70;99.90
12303;DHT22;6214;48.012;7.862;2023-02-18T05:09:16;13.60;99.90
12303;DHT22;6214;48.012;7.862;2023-02-18T05:11:43;13.60;99.90
12303;DHT22;6214;48.012;7.862;2023-02-18T05:14:10;13.60;99.90
12303;DHT22;6214;48.012;7.862;2023-02-18T05:16:37;13.60;99.90
12303;DHT22;6214;48.012;7.862;2023-02-18T05:19:04;13.50;99.90
12303;DHT22;6214;48.012;7.862;2023-02-18T05:21:31;13.60;99.90
12303;DHT22;6214;48.012;7.862;2023-02-18T05:23:58;13.60;99.90
12303;DHT22;6214;48.012;7.862;2023-02-18T05:26:25;13.70;99.90
12303;DHT22;6214;48.012;7.862;2023-02-18T05:28:52;13.60;99.90
12303;DHT22;6214;48.012;7.862;2023-02-18T05:31:19;13.60;99.90
12303;DHT22;6214;48.012;7.862;2023-02-18T05:33:46;13.50;99.90
12303;DHT22;6214;48.012;7.862;2023-02-18T05:36:12;13.60;99.90
12303;DHT22;6214;48.012;7.862;2023-02-18T05:38:39;13.50;99.90
12303;DHT22;6214;48.012;7.862;2023-02-18T05:41:06;13.50;99.90
12303;DHT22;6214;48.012;7.862;2023-02-18T05:43:33;13.40;99.90
12303;DHT22;6214;48.012;7.862;2023-02-18T05:46:20;13.30;99.90
12303;DHT22;6214;48.012;7.862;2023-02-18T05:48:47;13.30;99.90
12303;DHT22;6214;48.012;7.862;2023-02-18T05:51:14;13.20;99.90
12303;DHT22;6214;48.012;7.862;2023-02-18T05:53:41;13.20;99.90
12303;DHT22;6214;48.012;7.862;2023-02-18T05:56:08;13.20;99.90
12303;DHT22;6214;48.012;7.862;2023-02-18T05:58:35;13.20;99.90
12303;DHT22;6214;48.012;7.862;2023-02-18T06:01:03;13.20;99.90
12303;DHT22;6214;48.012;7.862;2023-02-18T06:03:30;13.20;99.90
12303;DHT22;6214;48.012;7.862;2023-02-18T06:05:56;13.20;99.90
12303;DHT22;6214;48.012;7.862;2023-02-18T06:08:23;13.30;99.90
12303;DHT22;6214;48.012;7.862;2023-02-18T06:10:50;13.30;99.90
12303;DHT22;6214;48.012;7.862;2023-02-18T06:13:17;13.30;99.90
12303;DHT22;6214;48.012;7.862;2023-02-18T06:15:44;13.30;99.90
12303;DHT22;6214;48.012;7.862;2023-02-18T06:18:11;13.20;99.90
12303;DHT22;6214;48.012;7.862;2023-02-18T06:20:38;13.20;99.90
12303;DHT22;6214;48.012;7.862;2023-02-18T06:23:06;13.30;99.90
12303;DHT22;6214;48.012;7.862;2023-02-18T06:25:33;13.30;99.90
12303;DHT22;6214;48.012;7.862;2023-02-18T06:28:00;13.30;99.90
12303;DHT22;6214;48.012;7.862;2023-02-18T06:30:27;13.40;99.90
12303;DHT22;6214;48.012;7.862;2023-02-18T06:32:54;13.30;99.90
12303;DHT22;6214;48.012;7.862;2023-02-18T06:35:21;13.30;99.90
12303;DHT22;6214;48.012;7.862;2023-02-18T06:37:48;13.30;99.90
12303;DHT22;6214;48.012;7.862;2023-02-18T06:40:15;13.20;99.90
12303;DHT22;6214;48.012;7.862;2023-02-18T06:42:42;13.20;99.90
12303;DHT22;6214;48.012;7.862;2023-02-18T06:45:09;13.30;99.90
12303;DHT22;6214;48.012;7.862;2023-02-18T06:47:36;13.20;99.90
12303;DHT22;6214;48.012;7.862;2023-02-18T06:50:03;13.20;99.90
12303;DHT22;6214;48.012;7.862;2023-02-18T06:52:30;13.30;99.90
12303;DHT22;6214;48.012;7.862;2023-02-18T06:54:59;13.40;99.90
12303;DHT22;6214;48.012;7.862;2023-02-18T06:57:26;13.50;99.90
12303;DHT22;6214;48.012;7.862;2023-02-18T06:59:53;13.50;99.90
12303;DHT22;6214;48.012;7.862;2023-02-18T07:02:20;13.60;99.90
12303;DHT22;6214;48.012;7.862;2023-02-18T07:04:47;13.60;99.90
12303;DHT22;6214;48.012;7.862;2023-02-18T07:07:14;13.80;99.90
12303;DHT22;6214;48.012;7.862;2023-02-18T07:09:41;13.70;99.90
12303;DHT22;6214;48.012;7.862;2023-02-18T07:12:08;13.90;99.90
12303;DHT22;6214;48.012;7.862;2023-02-18T07:14:34;14.00;99.90
12303;DHT22;6214;48.012;7.862;2023-02-18T07:17:01;14.00;99.90
12303;DHT22;6214;48.012;7.862;2023-02-18T07:19:28;14.10;99.90
12303;DHT22;6214;48.012;7.862;2023-02-18T07:21:55;14.10;99.90
12303;DHT22;6214;48.012;7.862;2023-02-18T07:24:23;14.20;99.90
12303;DHT22;6214;48.012;7.862;2023-02-18T07:26:50;14.20;99.90
12303;DHT22;6214;48.012;7.862;2023-02-18T07:29:17;14.30;99.90
12303;DHT22;6214;48.012;7.862;2023-02-18T07:31:44;14.40;99.90
12303;DHT22;6214;48.012;7.862;2023-02-18T07:34:11;14.50;99.90
12303;DHT22;6214;48.012;7.862;2023-02-18T07:36:38;14.60;99.90
12303;DHT22;6214;48.012;7.862;2023-02-18T07:39:05;14.80;99.90
12303;DHT22;6214;48.012;7.862;2023-02-18T07:41:32;14.70;99.90
12303;DHT22;6214;48.012;7.862;2023-02-18T07:43:59;14.70;99.90
12303;DHT22;6214;48.012;7.862;2023-02-18T07:46:26;14.60;99.90
12303;DHT22;6214;48.012;7.862;2023-02-18T07:48:52;14.60;99.90
12303;DHT22;6214;48.012;7.862;2023-02-18T07:51:19;14.40;99.90
12303;DHT22;6214;48.012;7.862;2023-02-18T07:53:46;14.80;99.90
12303;DHT22;6214;48.012;7.862;2023-02-18T07:56:13;14.80;99.90
12303;DHT22;6214;48.012;7.862;2023-02-18T07:58:40;14.80;99.90
12303;DHT22;6214;48.012;7.862;2023-02-18T08:01:10;14.70;99.90
12303;DHT22;6214;48.012;7.862;2023-02-18T08:03:37;14.60;99.90
12303;DHT22;6214;48.012;7.862;2023-02-18T08:06:05;14.60;99.90
12303;DHT22;6214;48.012;7.862;2023-02-18T08:08:32;14.60;99.90
12303;DHT22;6214;48.012;7.862;2023-02-18T08:11:03;14.50;99.90
12303;DHT22;6214;48.012;7.862;2023-02-18T08:13:45;14.50;99.90
12303;DHT22;6214;48.012;7.862;2023-02-18T08:16:13;14.50;99.90
12303;DHT22;6214;48.012;7.862;2023-02-18T08:18:40;14.50;99.90
12303;DHT22;6214;48.012;7.862;2023-02-18T08:21:07;14.50;99.90
12303;DHT22;6214;48.012;7.862;2023-02-18T08:23:35;14.50;99.90
12303;DHT22;6214;48.012;7.862;2023-02-18T08:26:01;14.50;99.90
12303;DHT22;6214;48.012;7.862;2023-02-18T08:28:28;14.40;99.90
12303;DHT22;6214;48.012;7.862;2023-02-18T08:30:55;14.30;99.90
12303;DHT22;6214;48.012;7.862;2023-02-18T08:33:23;14.30;99.90
12303;DHT22;6214;48.012;7.862;2023-02-18T08:35:52;14.40;99.90
12303;DHT22;6214;48.012;7.862;2023-02-18T08:38:20;14.60;99.90
12303;DHT22;6214;48.012;7.862;2023-02-18T08:40:48;14.70;99.90
12303;DHT22;6214;48.012;7.862;2023-02-18T08:43:16;14.60;99.90
12303;DHT22;6214;48.012;7.862;2023-02-18T08:45:43;14.50;99.90
12303;DHT22;6214;48.012;7.862;2023-02-18T08:48:12;14.50;99.90
12303;DHT22;6214;48.012;7.862;2023-02-18T08:50:46;14.70;99.90
12303;DHT22;6214;48.012;7.862;2023-02-18T08:53:13;14.90;99.90
12303;DHT22;6214;48.012;7.862;2023-02-18T08:55:40;15.00;99.90
12303;DHT22;6214;48.012;7.862;2023-02-18T08:58:07;15.10;99.90
12303;DHT22;6214;48.012;7.862;2023-02-18T09:00:36;15.20;99.90
12303;DHT22;6214;48.012;7.862;2023-02-18T09:03:03;15.30;99.90
12303;DHT22;6214;48.012;7.862;2023-02-18T09:05:30;15.20;99.90
12303;DHT22;6214;48.012;7.862;2023-02-18T09:07:57;15.20;99.90
12303;DHT22;6214;48.012;7.862;2023-02-18T09:10:24;15.10;99.90
12303;DHT22;6214;48.012;7.862;2023-02-18T09:12:51;15.00;99.90
12303;DHT22;6214;48.012;7.862;2023-02-18T09:15:18;15.20;99.90
12303;DHT22;6214;48.012;7.862;2023-02-18T09:17:45;15.30;99.90
12303;DHT22;6214;48.012;7.862;2023-02-18T09:20:12;15.60;99.90
12303;DHT22;6214;48.012;7.862;2023-02-18T09:22:40;15.60;99.90
12303;DHT22;6214;48.012;7.862;2023-02-18T09:25:07;15.60;99.90
12303;DHT22;6214;48.012;7.862;2023-02-18T09:27:34;15.60;99.90
12303;DHT22;6214;48.012;7.862;2023-02-18T09:30:01;15.60;99.90
12303;DHT22;6214;48.012;7.862;2023-02-18T09:32:28;15.70;99.90
12303;DHT22;6214;48.012;7.862;2023-02-18T09:35:02;15.80;99.90
12303;DHT22;6214;48.012;7.862;2023-02-18T09:37:29;15.80;99.90
12303;DHT22;6214;48.012;7.862;2023-02-18T09:39:56;15.80;99.90
12303;DHT22;6214;48.012;7.862;2023-02-18T09:42:31;15.70;99.90
12303;DHT22;6214;48.012;7.862;2023-02-18T09:45:03;15.80;99.90
12303;DHT22;6214;48.012;7.862;2023-02-18T09:47:38;15.80;99.90
12303;DHT22;6214;48.012;7.862;2023-02-18T09:52:38;15.80;99.90
12303;DHT22;6214;48.012;7.862;2023-02-18T09:55:24;15.80;99.90
12303;DHT22;6214;48.012;7.862;2023-02-18T09:57:56;15.90;99.90
12303;DHT22;6214;48.012;7.862;2023-02-18T10:00:31;16.00;99.90
12303;DHT22;6214;48.012;7.862;2023-02-18T10:03:12;16.10;99.90
12303;DHT22;6214;48.012;7.862;2023-02-18T10:08:24;16.70;99.90
12303;DHT22;6214;48.012;7.862;2023-02-18T10:10:51;17.00;99.90
12303;DHT22;6214;48.012;7.862;2023-02-18T10:13:24;17.00;99.90
12303;DHT22;6214;48.012;7.862;2023-02-18T10:15:52;17.10;99.90
12303;DHT22;6214;48.012;7.862;2023-02-18T10:18:32;17.20;99.90
12303;DHT22;6214;48.012;7.862;2023-02-18T10:21:19;17.30;99.90
12303;DHT22;6214;48.012;7.862;2023-02-18T10:24:16;17.60;99.90
12303;DHT22;6214;48.012;7.862;2023-02-18T10:26:46;17.50;99.90
12303;DHT22;6214;48.012;7.862;2023-02-18T10:29:16;18.10;99.90
12303;DHT22;6214;48.012;7.862;2023-02-18T10:50:44;18.50;99.90
12303;DHT22;6214;48.012;7.862;2023-02-18T10:55:44;18.60;99.90
12303;DHT22;6214;48.012;7.862;2023-02-18T10:58:25;18.60;99.90
12303;DHT22;6214;48.012;7.862;2023-02-18T11:00:52;18.30;99.90
12303;DHT22;6214;48.012;7.862;2023-02-18T11:03:25;18.60;99.90
12303;DHT22;6214;48.012;7.862;2023-02-18T11:05:55;18.60;99.90
12303;DHT22;6214;48.012;7.862;2023-02-18T11:08:26;18.60;99.90
12303;DHT22;6214;48.012;7.862;2023-02-18T11:10:55;18.70;99.90
12303;DHT22;6214;48.012;7.862;2023-02-18T11:13:27;18.60;99.90
12303;DHT22;6214;48.012;7.862;2023-02-18T11:15:59;18.40;99.90
12303;DHT22;6214;48.012;7.862;2023-02-18T11:21:19;18.20;99.90
12303;DHT22;6214;48.012;7.862;2023-02-18T11:23:50;18.00;99.90
12303;DHT22;6214;48.012;7.862;2023-02-18T11:26:30;17.80;99.90
12303;DHT22;6214;48.012;7.862;2023-02-18T11:29:06;17.80;99.90
12303;DHT22;6214;48.012;7.862;2023-02-18T11:31:46;18.00;99.90
12303;DHT22;6214;48.012;7.862;2023-02-18T11:34:17;17.90;99.90
12303;DHT22;6214;48.012;7.862;2023-02-18T11:36:45;17.90;99.90
12303;DHT22;6214;48.012;7.862;2023-02-18T11:39:26;17.90;99.90
12303;DHT22;6214;48.012;7.862;2023-02-18T11:41:56;17.70;99.90
12303;DHT22;6214;48.012;7.862;2023-02-18T11:47:05;17.30;99.90
12303;DHT22;6214;48.012;7.862;2023-02-18T11:49:34;17.60;99.90
12303;DHT22;6214;48.012;7.862;2023-02-18T11:52:15;17.50;99.90
12303;DHT22;6214;48.012;7.862;2023-02-18T11:55:03;17.50;99.90
12303;DHT22;6214;48.012;7.862;2023-02-18T11:57:33;17.70;99.90
12303;DHT22;6214;48.012;7.862;2023-02-18T12:00:01;17.60;99.90
12303;DHT22;6214;48.012;7.862;2023-02-18T12:07:51;17.30;99.90
12303;DHT22;6214;48.012;7.862;2023-02-18T12:12:53;17.00;99.90
12303;DHT22;6214;48.012;7.862;2023-02-18T12:15:42;17.10;99.90
12303;DHT22;6214;48.012;7.862;2023-02-18T12:20:53;17.20;99.90
12303;DHT22;6214;48.012;7.862;2023-02-18T12:37:48;17.30;99.90
12303;DHT22;6214;48.012;7.862;2023-02-18T12:43:05;17.30;99.90
12303;DHT22;6214;48.012;7.862;2023-02-18T12:49:14;18.00;99.90
12303;DHT22;6214;48.012;7.862;2023-02-18T12:57:58;18.20;99.90
12303;DHT22;6214;48.012;7.862;2023-02-18T13:00:53;18.30;99.90
12303;DHT22;6214;48.012;7.862;2023-02-18T13:12:15;17.50;99.90
12303;DHT22;6214;48.012;7.862;2023-02-18T13:15:01;17.40;99.90
12303;DHT22;6214;48.012;7.862;2023-02-18T13:17:33;17.30;99.90
12303;DHT22;6214;48.012;7.862;2023-02-18T13:22:39;17.40;99.90
12303;DHT22;6214;48.012;7.862;2023-02-18T13:25:12;17.50;99.90
12303;DHT22;6214;48.012;7.862;2023-02-18T13:30:24;17.10;99.90
12303;DHT22;6214;48.012;7.862;2023-02-18T13:41:06;17.20;99.90
12303;DHT22;6214;48.012;7.862;2023-02-18T13:43:35;17.10;99.90
12303;DHT22;6214;48.012;7.862;2023-02-18T13:51:13;17.30;99.90
12303;DHT22;6214;48.012;7.862;2023-02-18T13:53:43;17.20;99.90
12303;DHT22;6214;48.012;7.862;2023-02-18T13:56:20;17.10;99.90
12303;DHT22;6214;48.012;7.862;2023-02-18T13:58:50;16.90;99.90
12303;DHT22;6214;48.012;7.862;2023-02-18T14:01:40;16.80;99.90
12303;DHT22;6214;48.012;7.862;2023-02-18T14:04:47;16.80;99.90
12303;DHT22;6214;48.012;7.862;2023-02-18T14:10:00;16.70;99.90
12303;DHT22;6214;48.012;7.862;2023-02-18T14:14:57;16.90;99.90
12303;DHT22;6214;48.012;7.862;2023-02-18T14:17:37;17.00;99.90
12303;DHT22;6214;48.012;7.862;2023-02-18T14:22:44;17.30;99.90
12303;DHT22;6214;48.012;7.862;2023-02-18T14:27:52;17.20;99.90
12303;DHT22;6214;48.012;7.862;2023-02-18T14:30:25;17.20;99.90
12303;DHT22;6214;48.012;7.862;2023-02-18T14:32:59;17.00;99.90
12303;DHT22;6214;48.012;7.862;2023-02-18T14:35:50;17.00;99.90
12303;DHT22;6214;48.012;7.862;2023-02-18T14:44:03;17.20;99.90
12303;DHT22;6214;48.012;7.862;2023-02-18T14:51:56;17.00;99.90
12303;DHT22;6214;48.012;7.862;2023-02-18T14:54:24;17.10;99.90
12303;DHT22;6214;48.012;7.862;2023-02-18T14:56:55;17.30;99.90
12303;DHT22;6214;48.012;7.862;2023-02-18T14:59:27;17.30;99.90
12303;DHT22;6214;48.012;7.862;2023-02-18T15:01:56;17.20;99.90
12303;DHT22;6214;48.012;7.862;2023-02-18T15:04:24;17.20;99.90
12303;DHT22;6214;48.012;7.862;2023-02-18T15:07:03;17.10;99.90
12303;DHT22;6214;48.012;7.862;2023-02-18T15:09:30;17.10;99.90
12303;DHT22;6214;48.012;7.862;2023-02-18T15:12:04;16.90;99.90
12303;DHT22;6214;48.012;7.862;2023-02-18T15:14:35;16.80;99.90
12303;DHT22;6214;48.012;7.862;2023-02-18T15:17:03;16.80;99.90
12303;DHT22;6214;48.012;7.862;2023-02-18T15:19:38;16.80;99.90
12303;DHT22;6214;48.012;7.862;2023-02-18T15:22:14;16.70;99.90
12303;DHT22;6214;48.012;7.862;2023-02-18T15:24:43;16.80;99.90
12303;DHT22;6214;48.012;7.862;2023-02-18T15:27:17;16.80;99.90
12303;DHT22;6214;48.012;7.862;2023-02-18T15:29:52;16.70;99.90
12303;DHT22;6214;48.012;7.862;2023-02-18T15:32:26;16.70;99.90
12303;DHT22;6214;48.012;7.862;2023-02-18T15:34:59;16.60;99.90
12303;DHT22;6214;48.012;7.862;2023-02-18T15:37:30;16.40;99.90
12303;DHT22;6214;48.012;7.862;2023-02-18T15:39:57;16.40;99.90
12303;DHT22;6214;48.012;7.862;2023-02-18T15:42:27;16.40;99.90
12303;DHT22;6214;48.012;7.862;2023-02-18T15:47:27;16.30;99.90
12303;DHT22;6214;48.012;7.862;2023-02-18T15:49:58;16.30;99.90
12303;DHT22;6214;48.012;7.862;2023-02-18T15:52:28;16.30;99.90
12303;DHT22;6214;48.012;7.862;2023-02-18T15:55:05;16.10;99.90
12303;DHT22;6214;48.012;7.862;2023-02-18T15:57:35;16.00;99.90
12303;DHT22;6214;48.012;7.862;2023-02-18T16:01:00;16.00;99.90
12303;DHT22;6214;48.012;7.862;2023-02-18T16:03:27;16.10;99.90
12303;DHT22;6214;48.012;7.862;2023-02-18T16:06:10;15.90;99.90
12303;DHT22;6214;48.012;7.862;2023-02-18T16:08:38;15.90;99.90
12303;DHT22;6214;48.012;7.862;2023-02-18T16:11:10;15.90;99.90
12303;DHT22;6214;48.012;7.862;2023-02-18T16:13:45;15.80;99.90
12303;DHT22;6214;48.012;7.862;2023-02-18T16:16:29;15.70;99.90
12303;DHT22;6214;48.012;7.862;2023-02-18T16:18:56;15.70;99.90
12303;DHT22;6214;48.012;7.862;2023-02-18T16:21:29;15.50;99.90
12303;DHT22;6214;48.012;7.862;2023-02-18T16:23:59;15.40;99.90
12303;DHT22;6214;48.012;7.862;2023-02-18T16:26:40;15.50;99.90
12303;DHT22;6214;48.012;7.862;2023-02-18T16:31:57;15.50;99.90
12303;DHT22;6214;48.012;7.862;2023-02-18T16:34:24;15.50;99.90
12303;DHT22;6214;48.012;7.862;2023-02-18T16:36:51;15.40;99.90
12303;DHT22;6214;48.012;7.862;2023-02-18T16:39:37;15.40;99.90
12303;DHT22;6214;48.012;7.862;2023-02-18T16:42:10;15.30;99.90
12303;DHT22;6214;48.012;7.862;2023-02-18T16:44:38;15.20;99.90
12303;DHT22;6214;48.012;7.862;2023-02-18T16:47:06;15.20;99.90
12303;DHT22;6214;48.012;7.862;2023-02-18T16:49:34;15.10;99.90
12303;DHT22;6214;48.012;7.862;2023-02-18T16:52:05;15.10;99.90
12303;DHT22;6214;48.012;7.862;2023-02-18T16:54:33;15.10;99.90
12303;DHT22;6214;48.012;7.862;2023-02-18T16:57:00;15.00;99.90
12303;DHT22;6214;48.012;7.862;2023-02-18T16:59:27;14.90;99.90
12303;DHT22;6214;48.012;7.862;2023-02-18T17:01:54;14.90;99.90
12303;DHT22;6214;48.012;7.862;2023-02-18T17:04:21;14.90;99.90
12303;DHT22;6214;48.012;7.862;2023-02-18T17:06:49;14.80;99.90
12303;DHT22;6214;48.012;7.862;2023-02-18T17:09:18;14.80;99.90
12303;DHT22;6214;48.012;7.862;2023-02-18T17:11:52;14.80;99.90
12303;DHT22;6214;48.012;7.862;2023-02-18T17:14:21;14.90;99.90
12303;DHT22;6214;48.012;7.862;2023-02-18T17:16:51;14.80;99.90
12303;DHT22;6214;48.012;7.862;2023-02-18T17:19:19;14.80;99.90
12303;DHT22;6214;48.012;7.862;2023-02-18T17:21:46;14.70;99.90
12303;DHT22;6214;48.012;7.862;2023-02-18T17:24:17;14.70;99.90
12303;DHT22;6214;48.012;7.862;2023-02-18T17:26:44;14.70;99.90
12303;DHT22;6214;48.012;7.862;2023-02-18T17:29:11;14.70;99.90
12303;DHT22;6214;48.012;7.862;2023-02-18T17:31:40;14.70;99.90
12303;DHT22;6214;48.012;7.862;2023-02-18T17:34:14;14.70;99.90
12303;DHT22;6214;48.012;7.862;2023-02-18T17:36:41;14.70;99.90
12303;DHT22;6214;48.012;7.862;2023-02-18T17:39:15;14.60;99.90
12303;DHT22;6214;48.012;7.862;2023-02-18T17:41:45;14.70;99.90
12303;DHT22;6214;48.012;7.862;2023-02-18T17:44:17;14.80;99.90
12303;DHT22;6214;48.012;7.862;2023-02-18T17:46:45;14.80;99.90
12303;DHT22;6214;48.012;7.862;2023-02-18T17:49:12;14.70;99.90
12303;DHT22;6214;48.012;7.862;2023-02-18T17:51:39;14.60;99.90
12303;DHT22;6214;48.012;7.862;2023-02-18T17:54:14;14.70;99.90
12303;DHT22;6214;48.012;7.862;2023-02-18T17:56:41;14.60;99.90
12303;DHT22;6214;48.012;7.862;2023-02-18T17:59:09;14.60;99.90
12303;DHT22;6214;48.012;7.862;2023-02-18T18:01:35;14.60;99.90
12303;DHT22;6214;48.012;7.862;2023-02-18T18:04:03;14.70;99.90
12303;DHT22;6214;48.012;7.862;2023-02-18T18:06:31;14.70;99.90
12303;DHT22;6214;48.012;7.862;2023-02-18T18:09:01;14.70;99.90
12303;DHT22;6214;48.012;7.862;2023-02-18T18:11:28;14.70;99.90
12303;DHT22;6214;48.012;7.862;2023-02-18T18:13:55;14.70;99.90
12303;DHT22;6214;48.012;7.862;2023-02-18T18:16:24;14.60;99.90
12303;DHT22;6214;48.012;7.862;2023-02-18T18:18:51;14.60;99.90
12303;DHT22;6214;48.012;7.862;2023-02-18T18:21:36;14.60;99.90
12303;DHT22;6214;48.012;7.862;2023-02-18T18:24:04;14.50;99.90
12303;DHT22;6214;48.012;7.862;2023-02-18T18:26:30;14.50;99.90
12303;DHT22;6214;48.012;7.862;2023-02-18T18:28:57;14.50;99.90
12303;DHT22;6214;48.012;7.862;2023-02-18T18:31:24;14.50;99.90
12303;DHT22;6214;48.012;7.862;2023-02-18T18:33:51;14.50;99.90
12303;DHT22;6214;48.012;7.862;2023-02-18T18:36:20;14.50;99.90
12303;DHT22;6214;48.012;7.862;2023-02-18T18:38:47;14.50;99.90
12303;DHT22;6214;48.012;7.862;2023-02-18T18:41:17;14.50;99.90
12303;DHT22;6214;48.012;7.862;2023-02-18T18:43:44;14.40;99.90
12303;DHT22;6214;48.012;7.862;2023-02-18T18:46:11;14.30;99.90
12303;DHT22;6214;48.012;7.862;2023-02-18T18:48:38;14.30;99.90
12303;DHT22;6214;48.012;7.862;2023-02-18T18:51:05;14.30;99.90
12303;DHT22;6214;48.012;7.862;2023-02-18T18:53:34;14.30;99.90